sensor_id;sensor_type;location;lat;lon;timestamp;P1;durP1;ratioP1;P2;durP2;ratioP2
58354;SDS011;44160;49.080;19.302;2023-11-19T00:00:32;20.02;;;12.15;;
58354;SDS011;44160;49.080;19.302;2023-11-19T00:02:59;20.63;;;13.13;;
58354;SDS011;44160;49.080;19.302;2023-11-19T00:05:25;21.70;;;11.45;;
58354;SDS011;44160;49.080;19.302;2023-11-19T00:07:52;21.63;;;12.35;;
58354;SDS011;44160;49.080;19.302;2023-11-19T00:10:18;23.25;;;12.25;;
58354;SDS011;44160;49.080;19.302;2023-11-19T00:12:46;21.13;;;13.18;;
58354;SDS011;44160;49.080;19.302;2023-11-19T00:15:12;20.80;;;11.35;;
58354;SDS011;44160;49.080;19.302;2023-11-19T00:17:39;20.88;;;12.35;;
58354;SDS011;44160;49.080;19.302;2023-11-19T00:20:10;24.17;;;11.07;;
58354;SDS011;44160;49.080;19.302;2023-11-19T00:22:36;16.73;;;10.43;;
58354;SDS011;44160;49.080;19.302;2023-11-19T00:25:02;17.40;;;9.30;;
58354;SDS011;44160;49.080;19.302;2023-11-19T00:27:29;13.43;;;8.13;;
58354;SDS011;44160;49.080;19.302;2023-11-19T00:29:58;12.38;;;8.13;;
58354;SDS011;44160;49.080;19.302;2023-11-19T00:32:24;13.68;;;8.23;;
58354;SDS011;44160;49.080;19.302;2023-11-19T00:34:51;13.95;;;8.30;;
58354;SDS011;44160;49.080;19.302;2023-11-19T00:37:19;15.95;;;10.18;;
58354;SDS011;44160;49.080;19.302;2023-11-19T00:39:45;15.68;;;9.15;;
58354;SDS011;44160;49.080;19.302;2023-11-19T00:42:11;15.45;;;9.07;;
58354;SDS011;44160;49.080;19.302;2023-11-19T00:44:37;14.77;;;9.15;;
58354;SDS011;44160;49.080;19.302;2023-11-19T00:47:03;16.33;;;9.73;;
58354;SDS011;44160;49.080;19.302;2023-11-19T00:49:30;11.13;;;7.10;;
58354;SDS011;44160;49.080;19.302;2023-11-19T00:51:57;16.02;;;8.85;;
58354;SDS011;44160;49.080;19.302;2023-11-19T00:54:24;16.95;;;8.85;;
58354;SDS011;44160;49.080;19.302;2023-11-19T00:56:54;12.63;;;7.57;;
58354;SDS011;44160;49.080;19.302;2023-11-19T00:59:20;11.48;;;7.30;;
58354;SDS011;44160;49.080;19.302;2023-11-19T01:01:46;17.42;;;10.07;;
58354;SDS011;44160;49.080;19.302;2023-11-19T01:04:16;18.85;;;10.05;;
58354;SDS011;44160;49.080;19.302;2023-11-19T01:06:42;17.15;;;10.70;;
58354;SDS011;44160;49.080;19.302;2023-11-19T01:09:08;17.83;;;11.10;;
58354;SDS011;44160;49.080;19.302;2023-11-19T01:11:34;20.60;;;11.52;;
58354;SDS011;44160;49.080;19.302;2023-11-19T01:14:00;19.20;;;10.88;;
58354;SDS011;44160;49.080;19.302;2023-11-19T01:16:26;19.05;;;10.48;;
58354;SDS011;44160;49.080;19.302;2023-11-19T01:18:53;16.10;;;9.50;;
58354;SDS011;44160;49.080;19.302;2023-11-19T01:21:19;15.48;;;9.07;;
58354;SDS011;44160;49.080;19.302;2023-11-19T01:23:45;18.83;;;11.00;;
58354;SDS011;44160;49.080;19.302;2023-11-19T01:26:14;17.02;;;10.10;;
58354;SDS011;44160;49.080;19.302;2023-11-19T01:28:40;20.67;;;11.45;;
58354;SDS011;44160;49.080;19.302;2023-11-19T01:31:09;25.15;;;11.63;;
58354;SDS011;44160;49.080;19.302;2023-11-19T01:33:36;19.40;;;10.85;;
58354;SDS011;44160;49.080;19.302;2023-11-19T01:36:02;21.25;;;12.25;;
58354;SDS011;44160;49.080;19.302;2023-11-19T01:38:29;20.77;;;12.70;;
58354;SDS011;44160;49.080;19.302;2023-11-19T01:40:56;17.73;;;11.20;;
58354;SDS011;44160;49.080;19.302;2023-11-19T01:43:32;18.27;;;10.30;;
58354;SDS011;44160;49.080;19.302;2023-11-19T01:45:59;17.33;;;9.90;;
58354;SDS011;44160;49.080;19.302;2023-11-19T01:48:25;16.08;;;9.02;;
58354;SDS011;44160;49.080;19.302;2023-11-19T01:50:51;15.70;;;9.27;;
58354;SDS011;44160;49.080;19.302;2023-11-19T01:53:18;14.70;;;8.73;;
58354;SDS011;44160;49.080;19.302;2023-11-19T01:55:46;15.13;;;8.10;;
58354;SDS011;44160;49.080;19.302;2023-11-19T01:58:12;13.23;;;7.32;;
58354;SDS011;44160;49.080;19.302;2023-11-19T02:00:38;13.68;;;7.88;;
58354;SDS011;44160;49.080;19.302;2023-11-19T02:03:07;14.07;;;8.15;;
58354;SDS011;44160;49.080;19.302;2023-11-19T02:05:34;10.32;;;6.55;;
58354;SDS011;44160;49.080;19.302;2023-11-19T02:08:01;12.52;;;8.13;;
58354;SDS011;44160;49.080;19.302;2023-11-19T02:10:27;13.20;;;7.20;;
58354;SDS011;44160;49.080;19.302;2023-11-19T02:12:54;14.02;;;8.55;;
58354;SDS011;44160;49.080;19.302;2023-11-19T02:15:20;13.95;;;8.05;;
58354;SDS011;44160;49.080;19.302;2023-11-19T02:17:55;15.32;;;7.60;;
58354;SDS011;44160;49.080;19.302;2023-11-19T02:20:21;12.48;;;7.45;;
58354;SDS011;44160;49.080;19.302;2023-11-19T02:22:47;16.73;;;8.45;;
58354;SDS011;44160;49.080;19.302;2023-11-19T02:25:19;15.82;;;7.95;;
58354;SDS011;44160;49.080;19.302;2023-11-19T02:27:51;15.25;;;7.95;;
58354;SDS011;44160;49.080;19.302;2023-11-19T02:30:20;15.25;;;8.55;;
58354;SDS011;44160;49.080;19.302;2023-11-19T02:32:51;16.55;;;9.02;;
58354;SDS011;44160;49.080;19.302;2023-11-19T02:35:17;14.70;;;8.20;;
58354;SDS011;44160;49.080;19.302;2023-11-19T02:37:43;18.77;;;8.60;;
58354;SDS011;44160;49.080;19.302;2023-11-19T02:40:10;16.05;;;8.15;;
58354;SDS011;44160;49.080;19.302;2023-11-19T02:42:36;14.75;;;8.60;;
58354;SDS011;44160;49.080;19.302;2023-11-19T02:45:02;15.10;;;8.63;;
58354;SDS011;44160;49.080;19.302;2023-11-19T02:47:31;15.43;;;8.65;;
58354;SDS011;44160;49.080;19.302;2023-11-19T02:49:57;15.20;;;8.27;;
58354;SDS011;44160;49.080;19.302;2023-11-19T02:52:23;17.73;;;8.95;;
58354;SDS011;44160;49.080;19.302;2023-11-19T02:54:50;14.23;;;6.50;;
58354;SDS011;44160;49.080;19.302;2023-11-19T02:57:16;14.27;;;8.02;;
58354;SDS011;44160;49.080;19.302;2023-11-19T02:59:44;12.98;;;7.55;;
58354;SDS011;44160;49.080;19.302;2023-11-19T03:02:10;18.20;;;9.02;;
58354;SDS011;44160;49.080;19.302;2023-11-19T03:04:37;18.60;;;9.68;;
58354;SDS011;44160;49.080;19.302;2023-11-19T03:07:07;16.48;;;8.30;;
58354;SDS011;44160;49.080;19.302;2023-11-19T03:09:33;13.48;;;8.57;;
58354;SDS011;44160;49.080;19.302;2023-11-19T03:14:33;15.63;;;7.78;;
58354;SDS011;44160;49.080;19.302;2023-11-19T03:17:02;14.90;;;8.60;;
58354;SDS011;44160;49.080;19.302;2023-11-19T03:19:30;18.92;;;8.52;;
58354;SDS011;44160;49.080;19.302;2023-11-19T03:21:56;14.77;;;8.70;;
58354;SDS011;44160;49.080;19.302;2023-11-19T03:24:23;15.35;;;8.93;;
58354;SDS011;44160;49.080;19.302;2023-11-19T03:26:49;15.40;;;9.10;;
58354;SDS011;44160;49.080;19.302;2023-11-19T03:29:15;15.43;;;8.60;;
58354;SDS011;44160;49.080;19.302;2023-11-19T03:31:42;15.48;;;7.93;;
58354;SDS011;44160;49.080;19.302;2023-11-19T03:34:08;16.05;;;8.18;;
58354;SDS011;44160;49.080;19.302;2023-11-19T03:36:34;18.48;;;7.88;;
58354;SDS011;44160;49.080;19.302;2023-11-19T03:39:00;14.13;;;8.27;;
58354;SDS011;44160;49.080;19.302;2023-11-19T03:41:27;17.42;;;9.18;;
58354;SDS011;44160;49.080;19.302;2023-11-19T03:43:53;16.45;;;8.73;;
58354;SDS011;44160;49.080;19.302;2023-11-19T03:46:19;16.23;;;8.13;;
58354;SDS011;44160;49.080;19.302;2023-11-19T03:48:46;17.60;;;9.27;;
58354;SDS011;44160;49.080;19.302;2023-11-19T03:51:12;16.30;;;9.52;;
58354;SDS011;44160;49.080;19.302;2023-11-19T03:53:45;15.68;;;9.02;;
58354;SDS011;44160;49.080;19.302;2023-11-19T03:56:11;16.88;;;8.10;;
58354;SDS011;44160;49.080;19.302;2023-11-19T03:58:38;12.98;;;8.55;;
58354;SDS011;44160;49.080;19.302;2023-11-19T04:01:13;13.75;;;8.57;;
58354;SDS011;44160;49.080;19.302;2023-11-19T04:03:39;11.93;;;7.13;;
58354;SDS011;44160;49.080;19.302;2023-11-19T04:06:05;14.57;;;7.60;;
58354;SDS011;44160;49.080;19.302;2023-11-19T04:08:31;11.20;;;6.72;;
58354;SDS011;44160;49.080;19.302;2023-11-19T04:10:57;13.07;;;7.57;;
58354;SDS011;44160;49.080;19.302;2023-11-19T04:13:23;12.70;;;7.03;;
58354;SDS011;44160;49.080;19.302;2023-11-19T04:15:50;11.93;;;7.03;;
58354;SDS011;44160;49.080;19.302;2023-11-19T04:18:16;12.93;;;7.07;;
58354;SDS011;44160;49.080;19.302;2023-11-19T04:20:42;15.25;;;8.05;;
58354;SDS011;44160;49.080;19.302;2023-11-19T04:23:08;12.60;;;7.22;;
58354;SDS011;44160;49.080;19.302;2023-11-19T04:25:35;13.05;;;6.93;;
58354;SDS011;44160;49.080;19.302;2023-11-19T04:28:01;9.05;;;6.63;;
58354;SDS011;44160;49.080;19.302;2023-11-19T04:30:27;11.15;;;6.88;;
58354;SDS011;44160;49.080;19.302;2023-11-19T04:32:53;16.55;;;7.18;;
58354;SDS011;44160;49.080;19.302;2023-11-19T04:35:19;13.57;;;7.80;;
58354;SDS011;44160;49.080;19.302;2023-11-19T04:37:46;20.13;;;8.00;;
58354;SDS011;44160;49.080;19.302;2023-11-19T04:40:12;15.68;;;7.75;;
58354;SDS011;44160;49.080;19.302;2023-11-19T04:42:38;16.00;;;7.00;;
58354;SDS011;44160;49.080;19.302;2023-11-19T04:45:05;11.15;;;6.93;;
58354;SDS011;44160;49.080;19.302;2023-11-19T04:47:32;12.25;;;7.35;;
58354;SDS011;44160;49.080;19.302;2023-11-19T04:49:59;10.18;;;6.72;;
58354;SDS011;44160;49.080;19.302;2023-11-19T04:52:25;11.95;;;6.57;;
58354;SDS011;44160;49.080;19.302;2023-11-19T04:54:51;11.82;;;6.43;;
58354;SDS011;44160;49.080;19.302;2023-11-19T04:57:17;11.38;;;6.72;;
58354;SDS011;44160;49.080;19.302;2023-11-19T04:59:43;9.70;;;5.90;;
58354;SDS011;44160;49.080;19.302;2023-11-19T05:02:10;13.05;;;7.30;;
58354;SDS011;44160;49.080;19.302;2023-11-19T05:04:36;10.30;;;7.22;;
58354;SDS011;44160;49.080;19.302;2023-11-19T05:07:05;14.30;;;7.75;;
58354;SDS011;44160;49.080;19.302;2023-11-19T05:09:32;14.98;;;8.13;;
58354;SDS011;44160;49.080;19.302;2023-11-19T05:11:58;12.75;;;8.10;;
58354;SDS011;44160;49.080;19.302;2023-11-19T05:14:24;17.33;;;9.30;;
58354;SDS011;44160;49.080;19.302;2023-11-19T05:16:50;14.98;;;8.85;;
58354;SDS011;44160;49.080;19.302;2023-11-19T05:19:16;13.88;;;9.32;;
58354;SDS011;44160;49.080;19.302;2023-11-19T05:21:42;17.85;;;10.20;;
58354;SDS011;44160;49.080;19.302;2023-11-19T05:24:08;18.52;;;10.38;;
58354;SDS011;44160;49.080;19.302;2023-11-19T05:26:34;16.45;;;9.25;;
58354;SDS011;44160;49.080;19.302;2023-11-19T05:29:00;14.88;;;8.48;;
58354;SDS011;44160;49.080;19.302;2023-11-19T05:31:26;19.52;;;9.07;;
58354;SDS011;44160;49.080;19.302;2023-11-19T05:33:52;11.40;;;7.38;;
58354;SDS011;44160;49.080;19.302;2023-11-19T05:36:18;15.15;;;8.38;;
58354;SDS011;44160;49.080;19.302;2023-11-19T05:38:44;15.38;;;9.02;;
58354;SDS011;44160;49.080;19.302;2023-11-19T05:41:10;14.95;;;8.68;;
58354;SDS011;44160;49.080;19.302;2023-11-19T05:43:36;15.98;;;8.50;;
58354;SDS011;44160;49.080;19.302;2023-11-19T05:46:05;14.98;;;8.48;;
58354;SDS011;44160;49.080;19.302;2023-11-19T05:48:31;14.38;;;8.45;;
58354;SDS011;44160;49.080;19.302;2023-11-19T05:50:59;12.48;;;7.35;;
58354;SDS011;44160;49.080;19.302;2023-11-19T05:53:25;13.18;;;8.40;;
58354;SDS011;44160;49.080;19.302;2023-11-19T05:55:51;14.57;;;8.32;;
58354;SDS011;44160;49.080;19.302;2023-11-19T05:58:27;14.68;;;8.57;;
58354;SDS011;44160;49.080;19.302;2023-11-19T06:00:57;14.43;;;8.88;;
58354;SDS011;44160;49.080;19.302;2023-11-19T06:05:51;15.13;;;8.05;;
58354;SDS011;44160;49.080;19.302;2023-11-19T06:08:19;14.38;;;7.88;;
58354;SDS011;44160;49.080;19.302;2023-11-19T06:10:48;15.18;;;8.13;;
58354;SDS011;44160;49.080;19.302;2023-11-19T06:13:15;17.35;;;8.57;;
58354;SDS011;44160;49.080;19.302;2023-11-19T06:15:42;14.20;;;8.57;;
58354;SDS011;44160;49.080;19.302;2023-11-19T06:18:08;15.70;;;8.68;;
58354;SDS011;44160;49.080;19.302;2023-11-19T06:20:37;14.55;;;9.05;;
58354;SDS011;44160;49.080;19.302;2023-11-19T06:23:04;13.80;;;8.80;;
58354;SDS011;44160;49.080;19.302;2023-11-19T06:25:30;13.15;;;8.45;;
58354;SDS011;44160;49.080;19.302;2023-11-19T06:27:56;14.38;;;8.55;;
58354;SDS011;44160;49.080;19.302;2023-11-19T06:30:22;11.48;;;7.38;;
58354;SDS011;44160;49.080;19.302;2023-11-19T06:32:48;13.50;;;7.70;;
58354;SDS011;44160;49.080;19.302;2023-11-19T06:35:14;15.57;;;7.88;;
58354;SDS011;44160;49.080;19.302;2023-11-19T06:37:40;14.15;;;7.78;;
58354;SDS011;44160;49.080;19.302;2023-11-19T06:40:08;11.68;;;7.00;;
58354;SDS011;44160;49.080;19.302;2023-11-19T06:42:35;13.65;;;7.82;;
58354;SDS011;44160;49.080;19.302;2023-11-19T06:45:01;14.43;;;7.90;;
58354;SDS011;44160;49.080;19.302;2023-11-19T06:47:28;14.68;;;8.38;;
58354;SDS011;44160;49.080;19.302;2023-11-19T06:49:54;11.65;;;7.53;;
58354;SDS011;44160;49.080;19.302;2023-11-19T06:52:20;12.18;;;7.55;;
58354;SDS011;44160;49.080;19.302;2023-11-19T06:54:47;13.10;;;8.10;;
58354;SDS011;44160;49.080;19.302;2023-11-19T06:57:13;16.33;;;7.95;;
58354;SDS011;44160;49.080;19.302;2023-11-19T06:59:39;12.30;;;7.30;;
58354;SDS011;44160;49.080;19.302;2023-11-19T07:02:08;10.63;;;7.32;;
58354;SDS011;44160;49.080;19.302;2023-11-19T07:04:34;11.02;;;6.88;;
58354;SDS011;44160;49.080;19.302;2023-11-19T07:07:00;12.82;;;7.80;;
58354;SDS011;44160;49.080;19.302;2023-11-19T07:09:26;11.73;;;7.63;;
58354;SDS011;44160;49.080;19.302;2023-11-19T07:11:52;17.55;;;11.30;;
58354;SDS011;44160;49.080;19.302;2023-11-19T07:14:18;18.25;;;12.40;;
58354;SDS011;44160;49.080;19.302;2023-11-19T07:16:44;16.50;;;10.73;;
58354;SDS011;44160;49.080;19.302;2023-11-19T07:19:15;17.30;;;10.43;;
58354;SDS011;44160;49.080;19.302;2023-11-19T07:21:41;19.95;;;11.25;;
58354;SDS011;44160;49.080;19.302;2023-11-19T07:24:09;18.65;;;11.80;;
58354;SDS011;44160;49.080;19.302;2023-11-19T07:26:35;16.02;;;9.55;;
58354;SDS011;44160;49.080;19.302;2023-11-19T07:29:02;16.10;;;9.75;;
58354;SDS011;44160;49.080;19.302;2023-11-19T07:31:28;14.57;;;8.07;;
58354;SDS011;44160;49.080;19.302;2023-11-19T07:33:54;18.80;;;9.85;;
58354;SDS011;44160;49.080;19.302;2023-11-19T07:36:20;16.25;;;8.90;;
58354;SDS011;44160;49.080;19.302;2023-11-19T07:38:46;17.13;;;9.27;;
58354;SDS011;44160;49.080;19.302;2023-11-19T07:41:12;16.75;;;9.93;;
58354;SDS011;44160;49.080;19.302;2023-11-19T07:43:45;14.77;;;8.70;;
58354;SDS011;44160;49.080;19.302;2023-11-19T07:46:12;19.05;;;10.00;;
58354;SDS011;44160;49.080;19.302;2023-11-19T07:48:38;16.13;;;9.40;;
58354;SDS011;44160;49.080;19.302;2023-11-19T07:51:05;18.90;;;9.43;;
58354;SDS011;44160;49.080;19.302;2023-11-19T07:53:31;15.07;;;9.30;;
58354;SDS011;44160;49.080;19.302;2023-11-19T07:55:58;15.25;;;9.60;;
58354;SDS011;44160;49.080;19.302;2023-11-19T07:58:27;14.68;;;9.65;;
58354;SDS011;44160;49.080;19.302;2023-11-19T08:00:53;15.93;;;9.07;;
58354;SDS011;44160;49.080;19.302;2023-11-19T08:03:19;15.00;;;8.52;;
58354;SDS011;44160;49.080;19.302;2023-11-19T08:05:47;16.58;;;7.70;;
58354;SDS011;44160;49.080;19.302;2023-11-19T08:08:13;13.90;;;7.65;;
58354;SDS011;44160;49.080;19.302;2023-11-19T08:10:39;12.90;;;8.23;;
58354;SDS011;44160;49.080;19.302;2023-11-19T08:13:19;14.13;;;8.02;;
58354;SDS011;44160;49.080;19.302;2023-11-19T08:15:48;21.17;;;12.90;;
58354;SDS011;44160;49.080;19.302;2023-11-19T08:18:15;13.02;;;8.77;;
58354;SDS011;44160;49.080;19.302;2023-11-19T08:20:44;15.10;;;8.73;;
58354;SDS011;44160;49.080;19.302;2023-11-19T08:23:12;15.80;;;8.70;;
58354;SDS011;44160;49.080;19.302;2023-11-19T08:25:38;12.88;;;8.45;;
58354;SDS011;44160;49.080;19.302;2023-11-19T08:28:04;11.98;;;8.38;;
58354;SDS011;44160;49.080;19.302;2023-11-19T08:30:30;11.68;;;7.32;;
58354;SDS011;44160;49.080;19.302;2023-11-19T08:32:57;14.88;;;8.32;;
58354;SDS011;44160;49.080;19.302;2023-11-19T08:35:27;11.77;;;8.10;;
58354;SDS011;44160;49.080;19.302;2023-11-19T08:37:53;11.85;;;7.82;;
58354;SDS011;44160;49.080;19.302;2023-11-19T08:40:19;15.77;;;9.43;;
58354;SDS011;44160;49.080;19.302;2023-11-19T08:42:48;11.30;;;7.25;;
58354;SDS011;44160;49.080;19.302;2023-11-19T08:45:14;15.38;;;8.43;;
58354;SDS011;44160;49.080;19.302;2023-11-19T08:47:40;12.80;;;8.13;;
58354;SDS011;44160;49.080;19.302;2023-11-19T08:50:06;14.13;;;9.10;;
58354;SDS011;44160;49.080;19.302;2023-11-19T08:52:33;15.50;;;9.23;;
58354;SDS011;44160;49.080;19.302;2023-11-19T08:54:59;13.57;;;8.85;;
58354;SDS011;44160;49.080;19.302;2023-11-19T08:57:25;15.35;;;8.02;;
58354;SDS011;44160;49.080;19.302;2023-11-19T08:59:51;14.45;;;8.77;;
58354;SDS011;44160;49.080;19.302;2023-11-19T09:02:17;17.35;;;10.60;;
58354;SDS011;44160;49.080;19.302;2023-11-19T09:04:43;15.93;;;10.20;;
58354;SDS011;44160;49.080;19.302;2023-11-19T09:07:09;40.45;;;20.67;;
58354;SDS011;44160;49.080;19.302;2023-11-19T09:09:35;14.98;;;9.88;;
58354;SDS011;44160;49.080;19.302;2023-11-19T09:12:02;13.77;;;9.32;;
58354;SDS011;44160;49.080;19.302;2023-11-19T09:14:31;23.98;;;14.25;;
58354;SDS011;44160;49.080;19.302;2023-11-19T09:16:57;14.20;;;8.43;;
58354;SDS011;44160;49.080;19.302;2023-11-19T09:19:23;31.00;;;16.88;;
58354;SDS011;44160;49.080;19.302;2023-11-19T09:21:49;15.40;;;9.75;;
58354;SDS011;44160;49.080;19.302;2023-11-19T09:24:15;17.83;;;9.35;;
58354;SDS011;44160;49.080;19.302;2023-11-19T09:26:41;16.10;;;9.60;;
58354;SDS011;44160;49.080;19.302;2023-11-19T09:29:08;16.52;;;9.98;;
58354;SDS011;44160;49.080;19.302;2023-11-19T09:31:34;13.55;;;8.05;;
58354;SDS011;44160;49.080;19.302;2023-11-19T09:34:00;14.82;;;9.57;;
58354;SDS011;44160;49.080;19.302;2023-11-19T09:36:26;14.13;;;8.23;;
58354;SDS011;44160;49.080;19.302;2023-11-19T09:38:52;12.38;;;7.80;;
58354;SDS011;44160;49.080;19.302;2023-11-19T09:41:18;12.85;;;7.97;;
58354;SDS011;44160;49.080;19.302;2023-11-19T09:43:44;14.35;;;8.77;;
58354;SDS011;44160;49.080;19.302;2023-11-19T09:46:12;11.90;;;6.82;;
58354;SDS011;44160;49.080;19.302;2023-11-19T09:48:39;11.13;;;7.22;;
58354;SDS011;44160;49.080;19.302;2023-11-19T09:51:09;14.25;;;7.78;;
58354;SDS011;44160;49.080;19.302;2023-11-19T09:53:35;11.85;;;7.60;;
58354;SDS011;44160;49.080;19.302;2023-11-19T09:56:02;13.05;;;8.52;;
58354;SDS011;44160;49.080;19.302;2023-11-19T09:58:32;13.82;;;9.35;;
58354;SDS011;44160;49.080;19.302;2023-11-19T10:00:58;11.88;;;8.00;;
58354;SDS011;44160;49.080;19.302;2023-11-19T10:03:25;14.50;;;8.95;;
58354;SDS011;44160;49.080;19.302;2023-11-19T10:05:53;11.98;;;7.40;;
58354;SDS011;44160;49.080;19.302;2023-11-19T10:08:21;12.85;;;7.53;;
58354;SDS011;44160;49.080;19.302;2023-11-19T10:10:47;11.20;;;6.55;;
58354;SDS011;44160;49.080;19.302;2023-11-19T10:13:14;14.43;;;7.88;;
58354;SDS011;44160;49.080;19.302;2023-11-19T10:15:40;13.15;;;7.63;;
58354;SDS011;44160;49.080;19.302;2023-11-19T10:18:06;11.52;;;7.45;;
58354;SDS011;44160;49.080;19.302;2023-11-19T10:20:41;23.30;;;11.07;;
58354;SDS011;44160;49.080;19.302;2023-11-19T10:23:09;15.75;;;9.32;;
58354;SDS011;44160;49.080;19.302;2023-11-19T10:25:36;12.00;;;7.97;;
58354;SDS011;44160;49.080;19.302;2023-11-19T10:28:02;12.43;;;6.88;;
58354;SDS011;44160;49.080;19.302;2023-11-19T10:30:28;13.70;;;8.43;;
58354;SDS011;44160;49.080;19.302;2023-11-19T10:35:31;12.27;;;7.43;;
58354;SDS011;44160;49.080;19.302;2023-11-19T10:37:58;11.27;;;7.20;;
58354;SDS011;44160;49.080;19.302;2023-11-19T10:40:31;15.00;;;8.52;;
58354;SDS011;44160;49.080;19.302;2023-11-19T10:43:03;15.02;;;8.25;;
58354;SDS011;44160;49.080;19.302;2023-11-19T10:45:29;16.52;;;8.55;;
58354;SDS011;44160;49.080;19.302;2023-11-19T10:47:55;18.35;;;10.18;;
58354;SDS011;44160;49.080;19.302;2023-11-19T10:50:22;15.48;;;9.13;;
58354;SDS011;44160;49.080;19.302;2023-11-19T10:52:52;12.38;;;7.75;;
58354;SDS011;44160;49.080;19.302;2023-11-19T10:55:25;15.02;;;8.75;;
58354;SDS011;44160;49.080;19.302;2023-11-19T10:57:52;14.25;;;8.57;;
58354;SDS011;44160;49.080;19.302;2023-11-19T11:00:18;10.30;;;7.03;;
58354;SDS011;44160;49.080;19.302;2023-11-19T11:02:45;9.60;;;6.20;;
58354;SDS011;44160;49.080;19.302;2023-11-19T11:05:15;13.60;;;7.75;;
58354;SDS011;44160;49.080;19.302;2023-11-19T11:07:42;11.20;;;7.13;;
58354;SDS011;44160;49.080;19.302;2023-11-19T11:10:08;10.10;;;7.10;;
58354;SDS011;44160;49.080;19.302;2023-11-19T11:12:36;11.98;;;7.38;;
58354;SDS011;44160;49.080;19.302;2023-11-19T11:15:04;14.32;;;8.27;;
58354;SDS011;44160;49.080;19.302;2023-11-19T11:17:31;11.75;;;7.88;;
58354;SDS011;44160;49.080;19.302;2023-11-19T11:19:57;12.77;;;8.05;;
58354;SDS011;44160;49.080;19.302;2023-11-19T11:22:23;13.40;;;8.45;;
58354;SDS011;44160;49.080;19.302;2023-11-19T11:27:30;16.83;;;10.05;;
58354;SDS011;44160;49.080;19.302;2023-11-19T11:30:13;12.65;;;7.63;;
58354;SDS011;44160;49.080;19.302;2023-11-19T11:35:16;18.80;;;10.15;;
58354;SDS011;44160;49.080;19.302;2023-11-19T11:37:49;20.27;;;10.50;;
58354;SDS011;44160;49.080;19.302;2023-11-19T11:40:17;18.92;;;11.25;;
58354;SDS011;44160;49.080;19.302;2023-11-19T11:42:46;18.88;;;11.23;;
58354;SDS011;44160;49.080;19.302;2023-11-19T11:45:13;17.10;;;10.68;;
58354;SDS011;44160;49.080;19.302;2023-11-19T11:50:12;18.33;;;9.43;;
58354;SDS011;44160;49.080;19.302;2023-11-19T11:53:21;48.15;;;25.80;;
58354;SDS011;44160;49.080;19.302;2023-11-19T11:55:51;52.40;;;25.15;;
58354;SDS011;44160;49.080;19.302;2023-11-19T11:58:20;30.73;;;16.90;;
58354;SDS011;44160;49.080;19.302;2023-11-19T12:00:47;34.97;;;20.08;;
58354;SDS011;44160;49.080;19.302;2023-11-19T12:03:14;34.15;;;19.88;;
58354;SDS011;44160;49.080;19.302;2023-11-19T12:05:46;21.65;;;11.77;;
58354;SDS011;44160;49.080;19.302;2023-11-19T12:08:13;27.52;;;15.25;;
58354;SDS011;44160;49.080;19.302;2023-11-19T12:10:47;17.92;;;10.95;;
58354;SDS011;44160;49.080;19.302;2023-11-19T12:13:14;17.83;;;10.85;;
58354;SDS011;44160;49.080;19.302;2023-11-19T12:18:23;14.20;;;9.20;;
58354;SDS011;44160;49.080;19.302;2023-11-19T12:20:49;10.48;;;7.22;;
58354;SDS011;44160;49.080;19.302;2023-11-19T12:23:15;13.23;;;9.38;;
58354;SDS011;44160;49.080;19.302;2023-11-19T12:25:41;11.48;;;7.47;;
58354;SDS011;44160;49.080;19.302;2023-11-19T12:28:13;11.90;;;7.35;;
58354;SDS011;44160;49.080;19.302;2023-11-19T12:30:41;13.10;;;7.57;;
58354;SDS011;44160;49.080;19.302;2023-11-19T12:33:08;13.60;;;7.57;;
58354;SDS011;44160;49.080;19.302;2023-11-19T12:35:41;11.88;;;7.63;;
58354;SDS011;44160;49.080;19.302;2023-11-19T12:38:07;11.20;;;7.15;;
58354;SDS011;44160;49.080;19.302;2023-11-19T12:40:33;11.25;;;6.80;;
58354;SDS011;44160;49.080;19.302;2023-11-19T12:42:59;12.30;;;7.72;;
58354;SDS011;44160;49.080;19.302;2023-11-19T12:45:35;7.45;;;5.97;;
58354;SDS011;44160;49.080;19.302;2023-11-19T12:48:05;9.90;;;6.10;;
58354;SDS011;44160;49.080;19.302;2023-11-19T12:51:14;11.48;;;6.68;;
58354;SDS011;44160;49.080;19.302;2023-11-19T12:53:46;12.18;;;8.38;;
58354;SDS011;44160;49.080;19.302;2023-11-19T12:56:22;10.05;;;6.78;;
58354;SDS011;44160;49.080;19.302;2023-11-19T12:58:48;11.00;;;7.38;;
58354;SDS011;44160;49.080;19.302;2023-11-19T13:01:16;10.60;;;5.78;;
58354;SDS011;44160;49.080;19.302;2023-11-19T13:03:42;12.27;;;6.78;;
58354;SDS011;44160;49.080;19.302;2023-11-19T13:06:09;13.32;;;8.48;;
58354;SDS011;44160;49.080;19.302;2023-11-19T13:08:45;11.43;;;6.03;;
58354;SDS011;44160;49.080;19.302;2023-11-19T13:11:13;8.15;;;5.88;;
58354;SDS011;44160;49.080;19.302;2023-11-19T13:13:59;8.52;;;5.38;;
58354;SDS011;44160;49.080;19.302;2023-11-19T13:16:26;8.15;;;5.05;;
58354;SDS011;44160;49.080;19.302;2023-11-19T13:19:09;7.82;;;5.28;;
58354;SDS011;44160;49.080;19.302;2023-11-19T13:21:42;10.23;;;5.38;;
58354;SDS011;44160;49.080;19.302;2023-11-19T13:24:12;9.65;;;5.57;;
58354;SDS011;44160;49.080;19.302;2023-11-19T13:26:40;9.88;;;6.15;;
58354;SDS011;44160;49.080;19.302;2023-11-19T13:29:09;12.27;;;7.70;;
58354;SDS011;44160;49.080;19.302;2023-11-19T13:31:36;12.85;;;7.72;;
58354;SDS011;44160;49.080;19.302;2023-11-19T13:34:04;15.93;;;8.52;;
58354;SDS011;44160;49.080;19.302;2023-11-19T13:36:35;13.75;;;8.48;;
58354;SDS011;44160;49.080;19.302;2023-11-19T13:39:05;11.13;;;6.82;;
58354;SDS011;44160;49.080;19.302;2023-11-19T13:41:33;12.25;;;7.30;;
58354;SDS011;44160;49.080;19.302;2023-11-19T13:43:59;9.32;;;6.13;;
58354;SDS011;44160;49.080;19.302;2023-11-19T13:46:28;10.07;;;6.63;;
58354;SDS011;44160;49.080;19.302;2023-11-19T13:48:54;9.43;;;6.05;;
58354;SDS011;44160;49.080;19.302;2023-11-19T13:51:21;9.40;;;5.93;;
58354;SDS011;44160;49.080;19.302;2023-11-19T13:53:47;9.32;;;5.65;;
58354;SDS011;44160;49.080;19.302;2023-11-19T13:56:13;7.60;;;5.43;;
58354;SDS011;44160;49.080;19.302;2023-11-19T13:58:39;8.93;;;5.82;;
58354;SDS011;44160;49.080;19.302;2023-11-19T14:01:05;14.02;;;7.72;;
58354;SDS011;44160;49.080;19.302;2023-11-19T14:03:34;17.70;;;7.97;;
58354;SDS011;44160;49.080;19.302;2023-11-19T14:06:00;34.17;;;14.82;;
58354;SDS011;44160;49.080;19.302;2023-11-19T14:08:27;47.05;;;17.42;;
58354;SDS011;44160;49.080;19.302;2023-11-19T14:10:53;19.20;;;9.60;;
58354;SDS011;44160;49.080;19.302;2023-11-19T14:13:21;28.70;;;11.23;;
58354;SDS011;44160;49.080;19.302;2023-11-19T14:15:53;20.67;;;9.63;;
58354;SDS011;44160;49.080;19.302;2023-11-19T14:18:21;32.97;;;13.38;;
58354;SDS011;44160;49.080;19.302;2023-11-19T14:20:48;22.40;;;9.88;;
58354;SDS011;44160;49.080;19.302;2023-11-19T14:23:14;16.17;;;9.35;;
58354;SDS011;44160;49.080;19.302;2023-11-19T14:25:40;21.08;;;11.80;;
58354;SDS011;44160;49.080;19.302;2023-11-19T14:28:06;35.72;;;16.63;;
58354;SDS011;44160;49.080;19.302;2023-11-19T14:30:32;11.52;;;6.72;;
58354;SDS011;44160;49.080;19.302;2023-11-19T14:32:59;28.80;;;13.23;;
58354;SDS011;44160;49.080;19.302;2023-11-19T14:35:25;20.63;;;10.60;;
58354;SDS011;44160;49.080;19.302;2023-11-19T14:37:51;13.20;;;7.07;;